sensor_id;sensor_type;location;lat;lon;timestamp;temperature;humidity
35635;DHT22;21757;43.610;1.440;2023-03-24T00:02:11;13.40;99.90
35635;DHT22;21757;43.610;1.440;2023-03-24T00:04:38;13.30;99.90
35635;DHT22;21757;43.610;1.440;2023-03-24T00:07:08;13.40;99.90
35635;DHT22;21757;43.610;1.440;2023-03-24T00:09:39;13.30;99.90
35635;DHT22;21757;43.610;1.440;2023-03-24T00:12:05;13.30;99.90
35635;DHT22;21757;43.610;1.440;2023-03-24T00:14:30;13.30;99.90
35635;DHT22;21757;43.610;1.440;2023-03-24T00:16:56;13.30;99.90
35635;DHT22;21757;43.610;1.440;2023-03-24T00:19:24;13.20;99.90
35635;DHT22;21757;43.610;1.440;2023-03-24T00:21:50;13.10;99.90
35635;DHT22;21757;43.610;1.440;2023-03-24T00:24:20;13.00;99.90
35635;DHT22;21757;43.610;1.440;2023-03-24T00:26:46;13.10;99.90
35635;DHT22;21757;43.610;1.440;2023-03-24T00:29:15;13.10;99.90
35635;DHT22;21757;43.610;1.440;2023-03-24T00:31:40;13.10;99.90
35635;DHT22;21757;43.610;1.440;2023-03-24T00:34:08;13.10;99.90
35635;DHT22;21757;43.610;1.440;2023-03-24T00:36:35;13.10;99.90
35635;DHT22;21757;43.610;1.440;2023-03-24T00:39:02;13.20;99.90
35635;DHT22;21757;43.610;1.440;2023-03-24T00:41:29;13.20;99.90
35635;DHT22;21757;43.610;1.440;2023-03-24T00:43:57;13.20;99.90
35635;DHT22;21757;43.610;1.440;2023-03-24T00:46:24;13.10;99.90
35635;DHT22;21757;43.610;1.440;2023-03-24T00:51:29;13.10;99.90
35635;DHT22;21757;43.610;1.440;2023-03-24T00:53:55;13.00;99.90
35635;DHT22;21757;43.610;1.440;2023-03-24T00:56:26;13.10;99.90
35635;DHT22;21757;43.610;1.440;2023-03-24T00:58:54;13.00;99.90
35635;DHT22;21757;43.610;1.440;2023-03-24T01:01:25;13.10;99.90
35635;DHT22;21757;43.610;1.440;2023-03-24T01:03:54;13.00;99.90
35635;DHT22;21757;43.610;1.440;2023-03-24T01:06:21;13.10;99.90
35635;DHT22;21757;43.610;1.440;2023-03-24T01:08:48;13.10;99.90
35635;DHT22;21757;43.610;1.440;2023-03-24T01:11:15;13.00;99.90
35635;DHT22;21757;43.610;1.440;2023-03-24T01:13:41;13.00;99.90
35635;DHT22;21757;43.610;1.440;2023-03-24T01:16:07;12.90;99.90
35635;DHT22;21757;43.610;1.440;2023-03-24T01:18:34;13.00;99.90
35635;DHT22;21757;43.610;1.440;2023-03-24T01:21:06;13.10;99.90
35635;DHT22;21757;43.610;1.440;2023-03-24T01:23:33;13.10;99.90
35635;DHT22;21757;43.610;1.440;2023-03-24T01:26:03;13.10;99.90
35635;DHT22;21757;43.610;1.440;2023-03-24T01:28:29;13.10;99.90
35635;DHT22;21757;43.610;1.440;2023-03-24T01:30:55;13.10;99.90
35635;DHT22;21757;43.610;1.440;2023-03-24T01:33:21;13.20;99.90
35635;DHT22;21757;43.610;1.440;2023-03-24T01:35:47;13.30;99.90
35635;DHT22;21757;43.610;1.440;2023-03-24T01:38:14;13.30;99.90
35635;DHT22;21757;43.610;1.440;2023-03-24T01:40:42;13.30;99.90
35635;DHT22;21757;43.610;1.440;2023-03-24T01:43:35;13.30;99.90
35635;DHT22;21757;43.610;1.440;2023-03-24T01:46:13;13.40;99.90
35635;DHT22;21757;43.610;1.440;2023-03-24T01:48:59;13.50;99.90
35635;DHT22;21757;43.610;1.440;2023-03-24T01:54:02;13.70;99.90
35635;DHT22;21757;43.610;1.440;2023-03-24T01:56:33;13.80;99.90
35635;DHT22;21757;43.610;1.440;2023-03-24T01:59:03;13.80;99.90
35635;DHT22;21757;43.610;1.440;2023-03-24T02:01:31;13.80;99.90
35635;DHT22;21757;43.610;1.440;2023-03-24T02:03:58;13.80;99.90
35635;DHT22;21757;43.610;1.440;2023-03-24T02:06:25;13.80;99.90
35635;DHT22;21757;43.610;1.440;2023-03-24T02:08:55;13.80;99.90
35635;DHT22;21757;43.610;1.440;2023-03-24T02:11:23;13.70;99.90
35635;DHT22;21757;43.610;1.440;2023-03-24T02:13:50;13.70;99.90
35635;DHT22;21757;43.610;1.440;2023-03-24T02:19:19;13.60;99.90
35635;DHT22;21757;43.610;1.440;2023-03-24T02:25:10;13.40;99.90
35635;DHT22;21757;43.610;1.440;2023-03-24T02:39:28;12.90;99.90
35635;DHT22;21757;43.610;1.440;2023-03-24T02:47:13;13.00;99.90
35635;DHT22;21757;43.610;1.440;2023-03-24T02:55:01;13.30;99.90
35635;DHT22;21757;43.610;1.440;2023-03-24T02:57:35;13.30;99.90
35635;DHT22;21757;43.610;1.440;2023-03-24T03:00:21;13.40;99.90
35635;DHT22;21757;43.610;1.440;2023-03-24T03:02:54;13.40;99.90
35635;DHT22;21757;43.610;1.440;2023-03-24T03:05:33;13.40;99.90
35635;DHT22;21757;43.610;1.440;2023-03-24T03:08:01;13.40;99.90
35635;DHT22;21757;43.610;1.440;2023-03-24T03:10:36;13.50;99.90
35635;DHT22;21757;43.610;1.440;2023-03-24T03:13:08;13.50;99.90
35635;DHT22;21757;43.610;1.440;2023-03-24T03:15:38;13.60;99.90
35635;DHT22;21757;43.610;1.440;2023-03-24T03:20:56;13.40;99.90
35635;DHT22;21757;43.610;1.440;2023-03-24T03:26:36;13.20;99.90
35635;DHT22;21757;43.610;1.440;2023-03-24T03:29:10;13.10;99.90
35635;DHT22;21757;43.610;1.440;2023-03-24T03:31:49;13.00;99.90
35635;DHT22;21757;43.610;1.440;2023-03-24T03:34:32;12.90;99.90
35635;DHT22;21757;43.610;1.440;2023-03-24T03:39:33;13.00;99.90
35635;DHT22;21757;43.610;1.440;2023-03-24T03:42:02;13.10;99.90
35635;DHT22;21757;43.610;1.440;2023-03-24T03:44:28;13.00;99.90
35635;DHT22;21757;43.610;1.440;2023-03-24T03:46:54;12.90;99.90
35635;DHT22;21757;43.610;1.440;2023-03-24T03:49:23;12.80;99.90
35635;DHT22;21757;43.610;1.440;2023-03-24T03:51:50;12.70;99.90
35635;DHT22;21757;43.610;1.440;2023-03-24T03:54:17;12.70;99.90
35635;DHT22;21757;43.610;1.440;2023-03-24T03:56:43;12.60;99.90
35635;DHT22;21757;43.610;1.440;2023-03-24T03:59:23;12.60;99.90
35635;DHT22;21757;43.610;1.440;2023-03-24T04:01:49;12.60;99.90
35635;DHT22;21757;43.610;1.440;2023-03-24T04:04:38;12.50;99.90
35635;DHT22;21757;43.610;1.440;2023-03-24T04:18:40;12.30;99.90
35635;DHT22;21757;43.610;1.440;2023-03-24T04:21:29;12.30;99.90
35635;DHT22;21757;43.610;1.440;2023-03-24T04:24:27;12.30;99.90
35635;DHT22;21757;43.610;1.440;2023-03-24T04:32:40;12.50;99.90
35635;DHT22;21757;43.610;1.440;2023-03-24T04:35:16;12.70;99.90
35635;DHT22;21757;43.610;1.440;2023-03-24T04:37:46;12.80;99.90
35635;DHT22;21757;43.610;1.440;2023-03-24T04:40:13;12.80;99.90
35635;DHT22;21757;43.610;1.440;2023-03-24T04:42:48;13.00;99.90
35635;DHT22;21757;43.610;1.440;2023-03-24T04:45:17;13.10;99.90
35635;DHT22;21757;43.610;1.440;2023-03-24T04:47:46;13.20;99.90
35635;DHT22;21757;43.610;1.440;2023-03-24T04:50:16;13.20;99.90
35635;DHT22;21757;43.610;1.440;2023-03-24T04:52:55;13.30;99.90
35635;DHT22;21757;43.610;1.440;2023-03-24T04:58:08;13.40;99.90
35635;DHT22;21757;43.610;1.440;2023-03-24T05:00:33;13.40;99.90
35635;DHT22;21757;43.610;1.440;2023-03-24T05:03:01;13.40;99.90
35635;DHT22;21757;43.610;1.440;2023-03-24T05:05:27;13.30;99.90
35635;DHT22;21757;43.610;1.440;2023-03-24T05:07:53;13.30;99.90
35635;DHT22;21757;43.610;1.440;2023-03-24T05:10:21;13.30;99.90
35635;DHT22;21757;43.610;1.440;2023-03-24T05:12:48;13.30;99.90
35635;DHT22;21757;43.610;1.440;2023-03-24T05:15:14;13.30;99.90
35635;DHT22;21757;43.610;1.440;2023-03-24T05:17:39;13.30;99.90
35635;DHT22;21757;43.610;1.440;2023-03-24T05:20:06;13.30;99.90
35635;DHT22;21757;43.610;1.440;2023-03-24T05:22:38;13.30;99.90
35635;DHT22;21757;43.610;1.440;2023-03-24T05:25:04;13.40;99.90
35635;DHT22;21757;43.610;1.440;2023-03-24T05:27:30;13.30;99.90
35635;DHT22;21757;43.610;1.440;2023-03-24T05:29:56;13.40;99.90
35635;DHT22;21757;43.610;1.440;2023-03-24T05:32:22;13.40;99.90
35635;DHT22;21757;43.610;1.440;2023-03-24T05:34:48;13.40;99.90
35635;DHT22;21757;43.610;1.440;2023-03-24T05:37:13;13.30;99.90
35635;DHT22;21757;43.610;1.440;2023-03-24T05:39:41;13.30;99.90
35635;DHT22;21757;43.610;1.440;2023-03-24T05:42:07;13.20;99.90
35635;DHT22;21757;43.610;1.440;2023-03-24T05:44:36;13.20;99.90
35635;DHT22;21757;43.610;1.440;2023-03-24T05:47:02;13.30;99.90
35635;DHT22;21757;43.610;1.440;2023-03-24T05:49:28;13.30;99.90
35635;DHT22;21757;43.610;1.440;2023-03-24T05:51:54;13.30;99.90
35635;DHT22;21757;43.610;1.440;2023-03-24T05:54:20;13.30;99.90
35635;DHT22;21757;43.610;1.440;2023-03-24T05:56:47;13.30;99.90
35635;DHT22;21757;43.610;1.440;2023-03-24T05:59:12;13.20;99.90
35635;DHT22;21757;43.610;1.440;2023-03-24T06:01:38;13.20;99.90
35635;DHT22;21757;43.610;1.440;2023-03-24T06:04:07;13.20;99.90
35635;DHT22;21757;43.610;1.440;2023-03-24T06:06:33;13.10;99.90
35635;DHT22;21757;43.610;1.440;2023-03-24T06:08:59;13.00;99.90
35635;DHT22;21757;43.610;1.440;2023-03-24T06:11:27;13.10;99.90
35635;DHT22;21757;43.610;1.440;2023-03-24T06:13:53;13.20;99.90
35635;DHT22;21757;43.610;1.440;2023-03-24T06:16:27;13.30;99.90
35635;DHT22;21757;43.610;1.440;2023-03-24T06:18:54;13.40;99.90
35635;DHT22;21757;43.610;1.440;2023-03-24T06:21:25;13.40;99.90
35635;DHT22;21757;43.610;1.440;2023-03-24T06:23:55;13.50;99.90
35635;DHT22;21757;43.610;1.440;2023-03-24T06:26:24;13.50;99.90
35635;DHT22;21757;43.610;1.440;2023-03-24T06:28:50;13.50;99.90
35635;DHT22;21757;43.610;1.440;2023-03-24T06:31:17;13.50;99.90
35635;DHT22;21757;43.610;1.440;2023-03-24T06:33:46;13.60;99.90
35635;DHT22;21757;43.610;1.440;2023-03-24T06:36:13;13.70;99.90
35635;DHT22;21757;43.610;1.440;2023-03-24T06:38:39;13.80;99.90
35635;DHT22;21757;43.610;1.440;2023-03-24T06:41:05;13.70;99.90
35635;DHT22;21757;43.610;1.440;2023-03-24T06:43:31;13.40;99.90
35635;DHT22;21757;43.610;1.440;2023-03-24T06:45:58;13.40;99.90
35635;DHT22;21757;43.610;1.440;2023-03-24T06:48:23;13.40;99.90
35635;DHT22;21757;43.610;1.440;2023-03-24T06:50:51;13.40;99.90
35635;DHT22;21757;43.610;1.440;2023-03-24T06:53:18;13.50;99.90
35635;DHT22;21757;43.610;1.440;2023-03-24T06:55:43;13.60;99.90
35635;DHT22;21757;43.610;1.440;2023-03-24T06:58:10;13.70;99.90
35635;DHT22;21757;43.610;1.440;2023-03-24T07:00:35;13.80;99.90
35635;DHT22;21757;43.610;1.440;2023-03-24T07:03:02;14.10;99.90
35635;DHT22;21757;43.610;1.440;2023-03-24T07:05:28;14.30;99.90
35635;DHT22;21757;43.610;1.440;2023-03-24T07:07:54;14.70;99.90
35635;DHT22;21757;43.610;1.440;2023-03-24T07:10:20;14.80;99.90
35635;DHT22;21757;43.610;1.440;2023-03-24T07:12:46;14.90;99.90
35635;DHT22;21757;43.610;1.440;2023-03-24T07:15:13;15.00;99.90
35635;DHT22;21757;43.610;1.440;2023-03-24T07:17:40;15.00;99.90
35635;DHT22;21757;43.610;1.440;2023-03-24T07:20:06;15.10;99.90
35635;DHT22;21757;43.610;1.440;2023-03-24T07:22:33;15.20;99.90
35635;DHT22;21757;43.610;1.440;2023-03-24T07:25:01;15.10;99.90
35635;DHT22;21757;43.610;1.440;2023-03-24T07:27:33;14.90;99.90
35635;DHT22;21757;43.610;1.440;2023-03-24T07:29:59;14.80;99.90
35635;DHT22;21757;43.610;1.440;2023-03-24T07:32:28;14.80;99.90
35635;DHT22;21757;43.610;1.440;2023-03-24T07:34:54;14.90;99.90
35635;DHT22;21757;43.610;1.440;2023-03-24T07:37:20;14.90;99.90
35635;DHT22;21757;43.610;1.440;2023-03-24T07:39:46;14.90;99.90
35635;DHT22;21757;43.610;1.440;2023-03-24T07:42:12;14.90;99.90
35635;DHT22;21757;43.610;1.440;2023-03-24T07:44:38;15.10;99.90
35635;DHT22;21757;43.610;1.440;2023-03-24T07:47:03;15.40;99.90
35635;DHT22;21757;43.610;1.440;2023-03-24T07:49:29;15.50;99.90
35635;DHT22;21757;43.610;1.440;2023-03-24T07:51:55;15.50;99.90
35635;DHT22;21757;43.610;1.440;2023-03-24T07:54:23;15.60;99.90
35635;DHT22;21757;43.610;1.440;2023-03-24T07:56:49;16.00;99.90
35635;DHT22;21757;43.610;1.440;2023-03-24T07:59:15;16.30;99.90
35635;DHT22;21757;43.610;1.440;2023-03-24T08:01:42;16.10;99.90
35635;DHT22;21757;43.610;1.440;2023-03-24T08:04:10;16.20;99.90
35635;DHT22;21757;43.610;1.440;2023-03-24T08:06:37;16.20;99.90
35635;DHT22;21757;43.610;1.440;2023-03-24T08:09:03;16.30;99.90
35635;DHT22;21757;43.610;1.440;2023-03-24T08:11:29;16.30;99.90
35635;DHT22;21757;43.610;1.440;2023-03-24T08:13:55;16.50;99.90
35635;DHT22;21757;43.610;1.440;2023-03-24T08:16:22;16.60;99.90
35635;DHT22;21757;43.610;1.440;2023-03-24T08:18:49;16.60;99.90
35635;DHT22;21757;43.610;1.440;2023-03-24T08:21:15;16.60;99.90
35635;DHT22;21757;43.610;1.440;2023-03-24T08:23:41;16.60;99.90
35635;DHT22;21757;43.610;1.440;2023-03-24T08:26:07;16.70;99.90
35635;DHT22;21757;43.610;1.440;2023-03-24T08:28:36;16.80;99.90
35635;DHT22;21757;43.610;1.440;2023-03-24T08:31:02;17.00;99.90
35635;DHT22;21757;43.610;1.440;2023-03-24T08:33:28;17.50;99.90
35635;DHT22;21757;43.610;1.440;2023-03-24T08:35:54;17.80;99.90
35635;DHT22;21757;43.610;1.440;2023-03-24T08:38:23;17.90;99.90
35635;DHT22;21757;43.610;1.440;2023-03-24T08:40:58;17.90;99.90
35635;DHT22;21757;43.610;1.440;2023-03-24T08:43:32;17.60;99.90
35635;DHT22;21757;43.610;1.440;2023-03-24T08:45:59;17.40;99.90
35635;DHT22;21757;43.610;1.440;2023-03-24T08:48:26;17.40;99.90
35635;DHT22;21757;43.610;1.440;2023-03-24T08:50:52;17.40;99.90
35635;DHT22;21757;43.610;1.440;2023-03-24T08:53:18;17.40;99.90
35635;DHT22;21757;43.610;1.440;2023-03-24T08:55:45;17.50;99.90
35635;DHT22;21757;43.610;1.440;2023-03-24T08:58:15;17.50;99.90
35635;DHT22;21757;43.610;1.440;2023-03-24T09:00:42;17.70;99.90
35635;DHT22;21757;43.610;1.440;2023-03-24T09:03:12;18.00;99.90
35635;DHT22;21757;43.610;1.440;2023-03-24T09:05:38;18.40;99.90
35635;DHT22;21757;43.610;1.440;2023-03-24T09:08:04;18.80;99.90
35635;DHT22;21757;43.610;1.440;2023-03-24T09:10:31;19.20;99.90
35635;DHT22;21757;43.610;1.440;2023-03-24T09:12:57;19.40;99.90
35635;DHT22;21757;43.610;1.440;2023-03-24T09:15:22;19.50;99.90
35635;DHT22;21757;43.610;1.440;2023-03-24T09:17:48;19.70;99.90
35635;DHT22;21757;43.610;1.440;2023-03-24T09:20:14;19.80;99.90
35635;DHT22;21757;43.610;1.440;2023-03-24T09:22:42;19.70;99.90
35635;DHT22;21757;43.610;1.440;2023-03-24T09:25:11;19.80;99.90
35635;DHT22;21757;43.610;1.440;2023-03-24T09:27:37;19.50;99.90
35635;DHT22;21757;43.610;1.440;2023-03-24T09:30:04;19.00;99.90
35635;DHT22;21757;43.610;1.440;2023-03-24T09:32:31;18.70;99.90
35635;DHT22;21757;43.610;1.440;2023-03-24T09:34:58;18.70;99.90
35635;DHT22;21757;43.610;1.440;2023-03-24T09:37:24;18.90;99.90
35635;DHT22;21757;43.610;1.440;2023-03-24T09:39:52;18.90;99.90
35635;DHT22;21757;43.610;1.440;2023-03-24T09:42:24;19.10;99.90
35635;DHT22;21757;43.610;1.440;2023-03-24T09:44:56;18.90;99.90
35635;DHT22;21757;43.610;1.440;2023-03-24T09:49:49;18.90;99.90
35635;DHT22;21757;43.610;1.440;2023-03-24T09:52:21;19.10;99.90
35635;DHT22;21757;43.610;1.440;2023-03-24T09:54:58;19.90;99.90
35635;DHT22;21757;43.610;1.440;2023-03-24T09:57:36;19.90;99.90
35635;DHT22;21757;43.610;1.440;2023-03-24T10:00:22;19.70;99.90
35635;DHT22;21757;43.610;1.440;2023-03-24T10:02:49;20.00;99.90
35635;DHT22;21757;43.610;1.440;2023-03-24T10:05:21;20.30;99.90
35635;DHT22;21757;43.610;1.440;2023-03-24T10:07:56;20.40;99.90
35635;DHT22;21757;43.610;1.440;2023-03-24T10:10:55;19.90;99.90
35635;DHT22;21757;43.610;1.440;2023-03-24T10:14:06;20.10;99.90
35635;DHT22;21757;43.610;1.440;2023-03-24T10:16:40;19.80;99.90
35635;DHT22;21757;43.610;1.440;2023-03-24T10:21:51;19.80;99.90
35635;DHT22;21757;43.610;1.440;2023-03-24T10:24:51;19.60;99.90
35635;DHT22;21757;43.610;1.440;2023-03-24T10:27:33;19.50;99.90
35635;DHT22;21757;43.610;1.440;2023-03-24T10:30:21;19.90;99.90
35635;DHT22;21757;43.610;1.440;2023-03-24T10:32:48;19.40;99.90
35635;DHT22;21757;43.610;1.440;2023-03-24T10:35:21;19.70;99.90
35635;DHT22;21757;43.610;1.440;2023-03-24T10:37:50;19.70;99.90
35635;DHT22;21757;43.610;1.440;2023-03-24T10:40:19;20.30;99.90
35635;DHT22;21757;43.610;1.440;2023-03-24T10:42:47;20.00;99.90
35635;DHT22;21757;43.610;1.440;2023-03-24T10:45:23;19.90;99.90
35635;DHT22;21757;43.610;1.440;2023-03-24T10:47:50;19.80;99.90
35635;DHT22;21757;43.610;1.440;2023-03-24T10:50:17;19.60;99.90
35635;DHT22;21757;43.610;1.440;2023-03-24T10:52:48;19.60;99.90
35635;DHT22;21757;43.610;1.440;2023-03-24T10:55:20;19.80;99.90
35635;DHT22;21757;43.610;1.440;2023-03-24T10:57:57;19.90;99.90
35635;DHT22;21757;43.610;1.440;2023-03-24T11:00:25;20.00;99.90
35635;DHT22;21757;43.610;1.440;2023-03-24T11:05:30;19.70;99.90
35635;DHT22;21757;43.610;1.440;2023-03-24T11:10:42;19.20;99.90
35635;DHT22;21757;43.610;1.440;2023-03-24T11:16:03;18.70;99.90
35635;DHT22;21757;43.610;1.440;2023-03-24T11:18:30;19.10;99.90
35635;DHT22;21757;43.610;1.440;2023-03-24T11:20:59;18.90;99.90
35635;DHT22;21757;43.610;1.440;2023-03-24T11:23:38;19.10;99.90
35635;DHT22;21757;43.610;1.440;2023-03-24T11:26:13;19.70;99.90
35635;DHT22;21757;43.610;1.440;2023-03-24T11:31:22;20.40;99.90
35635;DHT22;21757;43.610;1.440;2023-03-24T11:34:08;20.90;99.90
35635;DHT22;21757;43.610;1.440;2023-03-24T11:36:38;21.00;99.90
35635;DHT22;21757;43.610;1.440;2023-03-24T11:39:24;20.90;99.90
35635;DHT22;21757;43.610;1.440;2023-03-24T11:47:30;20.60;99.90
35635;DHT22;21757;43.610;1.440;2023-03-24T11:50:29;20.80;99.90
35635;DHT22;21757;43.610;1.440;2023-03-24T11:58:50;20.10;99.90
35635;DHT22;21757;43.610;1.440;2023-03-24T12:06:32;18.90;99.90
35635;DHT22;21757;43.610;1.440;2023-03-24T12:09:20;19.10;99.90
35635;DHT22;21757;43.610;1.440;2023-03-24T12:14:41;18.50;99.90
35635;DHT22;21757;43.610;1.440;2023-03-24T12:17:23;18.60;99.90
35635;DHT22;21757;43.610;1.440;2023-03-24T12:20:07;18.40;99.90
35635;DHT22;21757;43.610;1.440;2023-03-24T12:22:49;17.80;99.90
35635;DHT22;21757;43.610;1.440;2023-03-24T12:25:26;17.60;99.90
35635;DHT22;21757;43.610;1.440;2023-03-24T12:47:21;16.50;99.90
35635;DHT22;21757;43.610;1.440;2023-03-24T12:55:42;16.00;99.90
35635;DHT22;21757;43.610;1.440;2023-03-24T13:01:06;15.90;99.90
35635;DHT22;21757;43.610;1.440;2023-03-24T13:07:05;15.70;99.90
35635;DHT22;21757;43.610;1.440;2023-03-24T13:09:48;15.70;99.90
35635;DHT22;21757;43.610;1.440;2023-03-24T13:12:37;15.60;99.90
35635;DHT22;21757;43.610;1.440;2023-03-24T13:20:31;15.90;99.90
35635;DHT22;21757;43.610;1.440;2023-03-24T13:23:11;17.00;99.90
35635;DHT22;21757;43.610;1.440;2023-03-24T13:26:03;16.80;99.90
35635;DHT22;21757;43.610;1.440;2023-03-24T13:31:12;16.40;99.90
35635;DHT22;21757;43.610;1.440;2023-03-24T13:33:39;16.40;99.90
35635;DHT22;21757;43.610;1.440;2023-03-24T13:38:49;17.10;99.90
35635;DHT22;21757;43.610;1.440;2023-03-24T13:41:21;17.40;99.90
35635;DHT22;21757;43.610;1.440;2023-03-24T13:46:31;16.60;99.90
35635;DHT22;21757;43.610;1.440;2023-03-24T13:49:04;16.70;99.90
35635;DHT22;21757;43.610;1.440;2023-03-24T13:51:33;16.60;99.90
35635;DHT22;21757;43.610;1.440;2023-03-24T13:54:18;16.80;99.90
35635;DHT22;21757;43.610;1.440;2023-03-24T13:57:00;16.90;99.90
35635;DHT22;21757;43.610;1.440;2023-03-24T14:15:56;15.50;99.90
35635;DHT22;21757;43.610;1.440;2023-03-24T14:21:04;15.40;99.90
35635;DHT22;21757;43.610;1.440;2023-03-24T14:23:45;15.50;99.90
35635;DHT22;21757;43.610;1.440;2023-03-24T14:26:32;15.70;99.90
35635;DHT22;21757;43.610;1.440;2023-03-24T14:28:59;15.70;99.90
35635;DHT22;21757;43.610;1.440;2023-03-24T14:31:33;15.40;99.90
35635;DHT22;21757;43.610;1.440;2023-03-24T14:34:01;15.40;99.90
35635;DHT22;21757;43.610;1.440;2023-03-24T14:36:38;15.60;99.90
35635;DHT22;21757;43.610;1.440;2023-03-24T14:39:26;15.50;99.90
35635;DHT22;21757;43.610;1.440;2023-03-24T14:41:55;15.60;99.90
35635;DHT22;21757;43.610;1.440;2023-03-24T14:47:22;15.70;99.90
35635;DHT22;21757;43.610;1.440;2023-03-24T14:49:51;15.60;99.90
35635;DHT22;21757;43.610;1.440;2023-03-24T14:52:39;15.50;99.90
35635;DHT22;21757;43.610;1.440;2023-03-24T14:55:14;15.50;99.90
35635;DHT22;21757;43.610;1.440;2023-03-24T14:57:46;15.40;99.90
35635;DHT22;21757;43.610;1.440;2023-03-24T15:00:24;15.60;99.90
35635;DHT22;21757;43.610;1.440;2023-03-24T15:03:01;15.20;99.90
35635;DHT22;21757;43.610;1.440;2023-03-24T15:05:36;15.20;99.90
35635;DHT22;21757;43.610;1.440;2023-03-24T15:08:16;15.10;99.90
35635;DHT22;21757;43.610;1.440;2023-03-24T15:11:02;15.00;99.90
35635;DHT22;21757;43.610;1.440;2023-03-24T15:13:34;15.00;99.90
35635;DHT22;21757;43.610;1.440;2023-03-24T15:16:03;15.10;99.90
35635;DHT22;21757;43.610;1.440;2023-03-24T15:18:31;15.20;99.90
35635;DHT22;21757;43.610;1.440;2023-03-24T15:20:57;15.20;99.90
35635;DHT22;21757;43.610;1.440;2023-03-24T15:23:26;15.30;99.90
35635;DHT22;21757;43.610;1.440;2023-03-24T15:25:54;15.30;99.90
35635;DHT22;21757;43.610;1.440;2023-03-24T15:28:28;15.30;99.90
35635;DHT22;21757;43.610;1.440;2023-03-24T15:30:56;15.30;99.90
35635;DHT22;21757;43.610;1.440;2023-03-24T15:33:24;15.10;99.90
35635;DHT22;21757;43.610;1.440;2023-03-24T15:35:57;14.90;99.90
35635;DHT22;21757;43.610;1.440;2023-03-24T15:38:29;14.70;99.90
35635;DHT22;21757;43.610;1.440;2023-03-24T15:41:08;14.90;99.90
35635;DHT22;21757;43.610;1.440;2023-03-24T15:43:49;15.10;99.90
35635;DHT22;21757;43.610;1.440;2023-03-24T15:48:48;15.10;99.90
35635;DHT22;21757;43.610;1.440;2023-03-24T15:51:15;14.90;99.90
35635;DHT22;21757;43.610;1.440;2023-03-24T15:53:44;15.10;99.90
35635;DHT22;21757;43.610;1.440;2023-03-24T15:56:25;15.10;99.90
35635;DHT22;21757;43.610;1.440;2023-03-24T15:59:06;15.10;99.90
35635;DHT22;21757;43.610;1.440;2023-03-24T16:01:37;14.80;99.90
35635;DHT22;21757;43.610;1.440;2023-03-24T16:04:16;15.00;99.90
35635;DHT22;21757;43.610;1.440;2023-03-24T16:06:47;15.20;99.90
35635;DHT22;21757;43.610;1.440;2023-03-24T16:09:15;15.30;99.90
35635;DHT22;21757;43.610;1.440;2023-03-24T16:11:41;15.30;99.90
35635;DHT22;21757;43.610;1.440;2023-03-24T16:14:27;15.30;99.90
35635;DHT22;21757;43.610;1.440;2023-03-24T16:16:55;15.30;99.90
35635;DHT22;21757;43.610;1.440;2023-03-24T16:19:21;15.20;99.90
35635;DHT22;21757;43.610;1.440;2023-03-24T16:21:47;15.30;99.90
35635;DHT22;21757;43.610;1.440;2023-03-24T16:24:13;15.10;99.90
35635;DHT22;21757;43.610;1.440;2023-03-24T16:26:38;15.20;99.90
35635;DHT22;21757;43.610;1.440;2023-03-24T16:29:15;14.90;99.90
35635;DHT22;21757;43.610;1.440;2023-03-24T16:31:41;14.80;99.90
35635;DHT22;21757;43.610;1.440;2023-03-24T16:34:08;14.70;99.90
35635;DHT22;21757;43.610;1.440;2023-03-24T16:36:35;14.80;99.90
35635;DHT22;21757;43.610;1.440;2023-03-24T16:39:00;15.10;99.90
35635;DHT22;21757;43.610;1.440;2023-03-24T16:41:27;15.10;99.90
35635;DHT22;21757;43.610;1.440;2023-03-24T16:43:53;14.90;99.90
35635;DHT22;21757;43.610;1.440;2023-03-24T16:48:51;14.70;99.90
35635;DHT22;21757;43.610;1.440;2023-03-24T16:51:17;14.70;99.90
35635;DHT22;21757;43.610;1.440;2023-03-24T16:53:45;14.80;99.90
35635;DHT22;21757;43.610;1.440;2023-03-24T16:56:16;15.10;99.90
35635;DHT22;21757;43.610;1.440;2023-03-24T16:58:42;15.20;99.90
35635;DHT22;21757;43.610;1.440;2023-03-24T17:01:18;15.30;99.90
35635;DHT22;21757;43.610;1.440;2023-03-24T17:04:14;15.20;99.90
35635;DHT22;21757;43.610;1.440;2023-03-24T17:06:43;15.10;99.90
35635;DHT22;21757;43.610;1.440;2023-03-24T17:09:10;15.30;99.90
35635;DHT22;21757;43.610;1.440;2023-03-24T17:11:39;15.10;99.90
35635;DHT22;21757;43.610;1.440;2023-03-24T17:14:08;14.90;99.90
35635;DHT22;21757;43.610;1.440;2023-03-24T17:16:38;14.80;99.90
35635;DHT22;21757;43.610;1.440;2023-03-24T17:19:12;15.20;99.90
35635;DHT22;21757;43.610;1.440;2023-03-24T17:21:44;15.10;99.90
35635;DHT22;21757;43.610;1.440;2023-03-24T17:24:11;15.10;99.90
35635;DHT22;21757;43.610;1.440;2023-03-24T17:26:40;15.00;99.90
35635;DHT22;21757;43.610;1.440;2023-03-24T17:29:10;15.00;99.90
35635;DHT22;21757;43.610;1.440;2023-03-24T17:31:36;15.30;99.90
35635;DHT22;21757;43.610;1.440;2023-03-24T17:34:01;15.50;99.90
35635;DHT22;21757;43.610;1.440;2023-03-24T17:36:27;14.90;99.90
35635;DHT22;21757;43.610;1.440;2023-03-24T17:38:53;14.90;99.90
35635;DHT22;21757;43.610;1.440;2023-03-24T17:41:19;15.20;99.90
35635;DHT22;21757;43.610;1.440;2023-03-24T17:43:45;15.40;99.90
35635;DHT22;21757;43.610;1.440;2023-03-24T17:46:11;15.50;99.90
35635;DHT22;21757;43.610;1.440;2023-03-24T17:48:37;15.30;99.90
35635;DHT22;21757;43.610;1.440;2023-03-24T17:51:03;14.90;99.90
35635;DHT22;21757;43.610;1.440;2023-03-24T17:53:29;14.70;99.90
35635;DHT22;21757;43.610;1.440;2023-03-24T17:55:59;14.90;99.90
35635;DHT22;21757;43.610;1.440;2023-03-24T17:58:31;15.10;99.90
35635;DHT22;21757;43.610;1.440;2023-03-24T18:00:57;14.90;99.90
35635;DHT22;21757;43.610;1.440;2023-03-24T18:03:25;14.80;99.90
35635;DHT22;21757;43.610;1.440;2023-03-24T18:05:52;15.10;99.90
35635;DHT22;21757;43.610;1.440;2023-03-24T18:08:18;15.00;99.90
35635;DHT22;21757;43.610;1.440;2023-03-24T18:10:44;15.00;99.90
35635;DHT22;21757;43.610;1.440;2023-03-24T18:13:10;14.90;99.90
35635;DHT22;21757;43.610;1.440;2023-03-24T18:15:40;14.60;99.90
35635;DHT22;21757;43.610;1.440;2023-03-24T18:18:06;14.30;99.90
35635;DHT22;21757;43.610;1.440;2023-03-24T18:20:32;14.30;99.90
35635;DHT22;21757;43.610;1.440;2023-03-24T18:22:58;14.20;99.90
35635;DHT22;21757;43.610;1.440;2023-03-24T18:25:23;14.10;99.90
35635;DHT22;21757;43.610;1.440;2023-03-24T18:27:49;14.00;99.90
35635;DHT22;21757;43.610;1.440;2023-03-24T18:30:15;14.00;99.90
35635;DHT22;21757;43.610;1.440;2023-03-24T18:32:41;13.90;99.90
35635;DHT22;21757;43.610;1.440;2023-03-24T18:35:09;13.90;99.90
35635;DHT22;21757;43.610;1.440;2023-03-24T18:37:36;13.90;99.90
35635;DHT22;21757;43.610;1.440;2023-03-24T18:40:03;13.90;99.90